sensor_id;sensor_type;location;lat;lon;timestamp;temperature;humidity
42885;DHT22;28534;48.100;11.584;2024-03-08T00:00:34;21.20;54.80
42885;DHT22;28534;48.100;11.584;2024-03-08T00:01:38;21.30;54.90
42885;DHT22;28534;48.100;11.584;2024-03-08T00:02:40;21.20;54.90
42885;DHT22;28534;48.100;11.584;2024-03-08T00:03:42;21.20;54.80
42885;DHT22;28534;48.100;11.584;2024-03-08T00:04:42;21.20;54.80
42885;DHT22;28534;48.100;11.584;2024-03-08T00:05:45;21.20;54.90
42885;DHT22;28534;48.100;11.584;2024-03-08T00:06:45;21.20;54.90
42885;DHT22;28534;48.100;11.584;2024-03-08T00:07:48;21.20;54.90
42885;DHT22;28534;48.100;11.584;2024-03-08T00:08:48;21.20;54.90
42885;DHT22;28534;48.100;11.584;2024-03-08T00:09:51;21.20;54.90
42885;DHT22;28534;48.100;11.584;2024-03-08T00:10:51;21.10;55.00
42885;DHT22;28534;48.100;11.584;2024-03-08T00:11:52;21.20;55.00
42885;DHT22;28534;48.100;11.584;2024-03-08T00:12:54;21.10;54.90
42885;DHT22;28534;48.100;11.584;2024-03-08T00:13:54;21.20;55.00
42885;DHT22;28534;48.100;11.584;2024-03-08T00:14:56;21.20;55.00
42885;DHT22;28534;48.100;11.584;2024-03-08T00:15:56;21.20;55.00
42885;DHT22;28534;48.100;11.584;2024-03-08T00:16:58;21.20;55.00
42885;DHT22;28534;48.100;11.584;2024-03-08T00:18:00;21.10;55.00
42885;DHT22;28534;48.100;11.584;2024-03-08T00:19:02;21.20;55.00
42885;DHT22;28534;48.100;11.584;2024-03-08T00:20:02;21.20;55.00
42885;DHT22;28534;48.100;11.584;2024-03-08T00:21:08;21.20;55.00
42885;DHT22;28534;48.100;11.584;2024-03-08T00:22:10;21.20;55.00
42885;DHT22;28534;48.100;11.584;2024-03-08T00:23:11;21.20;55.00
42885;DHT22;28534;48.100;11.584;2024-03-08T00:24:12;21.20;55.10
42885;DHT22;28534;48.100;11.584;2024-03-08T00:25:14;21.20;55.00
42885;DHT22;28534;48.100;11.584;2024-03-08T00:26:15;21.10;55.00
42885;DHT22;28534;48.100;11.584;2024-03-08T00:27:16;21.10;55.00
42885;DHT22;28534;48.100;11.584;2024-03-08T00:28:17;21.10;55.00
42885;DHT22;28534;48.100;11.584;2024-03-08T00:29:19;21.10;55.00
42885;DHT22;28534;48.100;11.584;2024-03-08T00:30:19;21.10;55.00
42885;DHT22;28534;48.100;11.584;2024-03-08T00:31:21;21.10;55.00
42885;DHT22;28534;48.100;11.584;2024-03-08T00:32:22;21.10;55.10
42885;DHT22;28534;48.100;11.584;2024-03-08T00:33:26;21.20;55.40
42885;DHT22;28534;48.100;11.584;2024-03-08T00:34:27;21.20;55.10
42885;DHT22;28534;48.100;11.584;2024-03-08T00:35:29;21.10;55.10
42885;DHT22;28534;48.100;11.584;2024-03-08T00:36:30;21.10;55.10
42885;DHT22;28534;48.100;11.584;2024-03-08T00:37:31;21.10;55.10
42885;DHT22;28534;48.100;11.584;2024-03-08T00:38:34;21.10;55.20
42885;DHT22;28534;48.100;11.584;2024-03-08T00:39:34;21.10;55.10
42885;DHT22;28534;48.100;11.584;2024-03-08T00:40:36;21.10;55.20
42885;DHT22;28534;48.100;11.584;2024-03-08T00:41:36;21.10;55.10
42885;DHT22;28534;48.100;11.584;2024-03-08T00:42:38;21.10;55.10
42885;DHT22;28534;48.100;11.584;2024-03-08T00:43:40;21.10;55.20
42885;DHT22;28534;48.100;11.584;2024-03-08T00:44:41;21.10;55.20
42885;DHT22;28534;48.100;11.584;2024-03-08T00:45:42;21.10;55.20
42885;DHT22;28534;48.100;11.584;2024-03-08T00:46:44;21.10;55.20
42885;DHT22;28534;48.100;11.584;2024-03-08T00:47:44;21.10;55.20
42885;DHT22;28534;48.100;11.584;2024-03-08T00:48:47;21.10;55.20
42885;DHT22;28534;48.100;11.584;2024-03-08T00:49:48;21.10;55.20
42885;DHT22;28534;48.100;11.584;2024-03-08T00:50:49;21.10;55.20
42885;DHT22;28534;48.100;11.584;2024-03-08T00:51:50;21.10;55.30
42885;DHT22;28534;48.100;11.584;2024-03-08T00:52:51;21.10;55.20
42885;DHT22;28534;48.100;11.584;2024-03-08T00:53:52;21.10;55.20
42885;DHT22;28534;48.100;11.584;2024-03-08T00:54:53;21.10;55.20
42885;DHT22;28534;48.100;11.584;2024-03-08T00:55:55;21.10;55.20
42885;DHT22;28534;48.100;11.584;2024-03-08T00:56:56;21.10;55.20
42885;DHT22;28534;48.100;11.584;2024-03-08T00:57:57;21.10;55.30
42885;DHT22;28534;48.100;11.584;2024-03-08T00:58:58;21.20;55.60
42885;DHT22;28534;48.100;11.584;2024-03-08T00:59:59;21.00;55.30
42885;DHT22;28534;48.100;11.584;2024-03-08T01:01:01;21.10;55.30
42885;DHT22;28534;48.100;11.584;2024-03-08T01:02:02;21.10;55.30
42885;DHT22;28534;48.100;11.584;2024-03-08T01:03:03;21.10;55.30
42885;DHT22;28534;48.100;11.584;2024-03-08T01:04:06;21.10;55.30
42885;DHT22;28534;48.100;11.584;2024-03-08T01:05:08;21.10;55.30
42885;DHT22;28534;48.100;11.584;2024-03-08T01:06:09;21.10;55.40
42885;DHT22;28534;48.100;11.584;2024-03-08T01:07:11;21.10;55.30
42885;DHT22;28534;48.100;11.584;2024-03-08T01:08:12;21.10;55.30
42885;DHT22;28534;48.100;11.584;2024-03-08T01:09:14;21.10;55.30
42885;DHT22;28534;48.100;11.584;2024-03-08T01:10:14;21.10;55.30
42885;DHT22;28534;48.100;11.584;2024-03-08T01:11:16;21.10;55.30
42885;DHT22;28534;48.100;11.584;2024-03-08T01:12:17;21.10;55.30
42885;DHT22;28534;48.100;11.584;2024-03-08T01:13:18;21.10;55.30
42885;DHT22;28534;48.100;11.584;2024-03-08T01:14:19;21.10;55.40
42885;DHT22;28534;48.100;11.584;2024-03-08T01:15:22;21.10;55.30
42885;DHT22;28534;48.100;11.584;2024-03-08T01:16:24;21.10;55.30
42885;DHT22;28534;48.100;11.584;2024-03-08T01:17:24;21.10;55.40
42885;DHT22;28534;48.100;11.584;2024-03-08T01:18:27;21.10;55.40
42885;DHT22;28534;48.100;11.584;2024-03-08T01:19:29;21.00;55.30
42885;DHT22;28534;48.100;11.584;2024-03-08T01:20:33;21.10;55.40
42885;DHT22;28534;48.100;11.584;2024-03-08T01:21:34;21.10;55.30
42885;DHT22;28534;48.100;11.584;2024-03-08T01:22:35;21.10;55.40
42885;DHT22;28534;48.100;11.584;2024-03-08T01:23:36;21.10;55.40
42885;DHT22;28534;48.100;11.584;2024-03-08T01:24:37;21.10;55.40
42885;DHT22;28534;48.100;11.584;2024-03-08T01:25:39;21.10;55.40
42885;DHT22;28534;48.100;11.584;2024-03-08T01:26:41;21.10;55.40
42885;DHT22;28534;48.100;11.584;2024-03-08T01:27:42;21.10;55.40
42885;DHT22;28534;48.100;11.584;2024-03-08T01:28:43;21.10;55.40
42885;DHT22;28534;48.100;11.584;2024-03-08T01:29:44;21.10;55.40
42885;DHT22;28534;48.100;11.584;2024-03-08T01:30:45;21.10;55.40
42885;DHT22;28534;48.100;11.584;2024-03-08T01:31:46;21.10;55.40
42885;DHT22;28534;48.100;11.584;2024-03-08T01:32:48;21.10;55.40
42885;DHT22;28534;48.100;11.584;2024-03-08T01:33:49;21.10;55.40
42885;DHT22;28534;48.100;11.584;2024-03-08T01:34:51;21.10;55.40
42885;DHT22;28534;48.100;11.584;2024-03-08T01:35:53;21.10;55.40
42885;DHT22;28534;48.100;11.584;2024-03-08T01:36:54;21.10;55.40
42885;DHT22;28534;48.100;11.584;2024-03-08T01:37:56;21.10;55.50
42885;DHT22;28534;48.100;11.584;2024-03-08T01:38:56;21.10;55.50
42885;DHT22;28534;48.100;11.584;2024-03-08T01:39:58;21.00;55.40
42885;DHT22;28534;48.100;11.584;2024-03-08T01:40:58;21.10;55.40
42885;DHT22;28534;48.100;11.584;2024-03-08T01:42:00;21.10;55.40
42885;DHT22;28534;48.100;11.584;2024-03-08T01:43:15;21.00;55.40
42885;DHT22;28534;48.100;11.584;2024-03-08T01:44:16;21.10;55.50
42885;DHT22;28534;48.100;11.584;2024-03-08T01:45:18;21.00;55.40
42885;DHT22;28534;48.100;11.584;2024-03-08T01:46:20;21.00;55.40
42885;DHT22;28534;48.100;11.584;2024-03-08T01:47:22;21.10;55.50
42885;DHT22;28534;48.100;11.584;2024-03-08T01:48:23;21.10;55.40
42885;DHT22;28534;48.100;11.584;2024-03-08T01:49:24;21.10;55.50
42885;DHT22;28534;48.100;11.584;2024-03-08T01:50:29;21.10;55.50
42885;DHT22;28534;48.100;11.584;2024-03-08T01:51:30;21.10;55.50
42885;DHT22;28534;48.100;11.584;2024-03-08T01:52:31;21.10;55.50
42885;DHT22;28534;48.100;11.584;2024-03-08T01:53:33;21.00;55.50
42885;DHT22;28534;48.100;11.584;2024-03-08T01:54:34;21.00;55.50
42885;DHT22;28534;48.100;11.584;2024-03-08T01:55:37;21.00;55.60
42885;DHT22;28534;48.100;11.584;2024-03-08T01:56:38;21.10;55.60
42885;DHT22;28534;48.100;11.584;2024-03-08T01:57:40;21.00;55.50
42885;DHT22;28534;48.100;11.584;2024-03-08T01:58:40;21.10;55.60
42885;DHT22;28534;48.100;11.584;2024-03-08T01:59:42;21.00;55.50
42885;DHT22;28534;48.100;11.584;2024-03-08T02:00:44;21.00;55.50
42885;DHT22;28534;48.100;11.584;2024-03-08T02:01:46;21.00;55.50
42885;DHT22;28534;48.100;11.584;2024-03-08T02:02:46;21.00;55.60
42885;DHT22;28534;48.100;11.584;2024-03-08T02:03:49;21.00;55.60
42885;DHT22;28534;48.100;11.584;2024-03-08T02:04:51;21.00;55.60
42885;DHT22;28534;48.100;11.584;2024-03-08T02:05:54;21.00;55.50
42885;DHT22;28534;48.100;11.584;2024-03-08T02:06:55;21.00;55.60
42885;DHT22;28534;48.100;11.584;2024-03-08T02:07:58;21.00;55.60
42885;DHT22;28534;48.100;11.584;2024-03-08T02:08:59;21.00;55.50
42885;DHT22;28534;48.100;11.584;2024-03-08T02:10:00;21.00;55.50
42885;DHT22;28534;48.100;11.584;2024-03-08T02:11:01;21.00;55.60
42885;DHT22;28534;48.100;11.584;2024-03-08T02:12:03;21.00;55.60
42885;DHT22;28534;48.100;11.584;2024-03-08T02:13:04;21.00;55.60
42885;DHT22;28534;48.100;11.584;2024-03-08T02:14:06;21.00;55.60
42885;DHT22;28534;48.100;11.584;2024-03-08T02:15:07;21.00;55.60
42885;DHT22;28534;48.100;11.584;2024-03-08T02:16:08;21.00;55.60
42885;DHT22;28534;48.100;11.584;2024-03-08T02:17:09;21.00;55.60
42885;DHT22;28534;48.100;11.584;2024-03-08T02:18:12;21.00;55.60
42885;DHT22;28534;48.100;11.584;2024-03-08T02:19:12;21.00;55.60
42885;DHT22;28534;48.100;11.584;2024-03-08T02:20:13;21.00;55.60
42885;DHT22;28534;48.100;11.584;2024-03-08T02:21:16;21.00;55.60
42885;DHT22;28534;48.100;11.584;2024-03-08T02:22:18;21.00;55.60
42885;DHT22;28534;48.100;11.584;2024-03-08T02:23:19;21.00;55.60
42885;DHT22;28534;48.100;11.584;2024-03-08T02:24:21;21.00;55.60
42885;DHT22;28534;48.100;11.584;2024-03-08T02:25:23;21.00;55.60
42885;DHT22;28534;48.100;11.584;2024-03-08T02:26:25;21.10;55.60
42885;DHT22;28534;48.100;11.584;2024-03-08T02:27:26;21.00;55.60
42885;DHT22;28534;48.100;11.584;2024-03-08T02:28:28;21.00;55.60
42885;DHT22;28534;48.100;11.584;2024-03-08T02:29:29;21.00;55.60
42885;DHT22;28534;48.100;11.584;2024-03-08T02:30:31;21.00;55.60
42885;DHT22;28534;48.100;11.584;2024-03-08T02:31:32;21.00;55.60
42885;DHT22;28534;48.100;11.584;2024-03-08T02:32:33;21.00;55.60
42885;DHT22;28534;48.100;11.584;2024-03-08T02:33:34;21.00;55.60
42885;DHT22;28534;48.100;11.584;2024-03-08T02:34:35;21.00;55.60
42885;DHT22;28534;48.100;11.584;2024-03-08T02:35:36;21.00;55.60
42885;DHT22;28534;48.100;11.584;2024-03-08T02:36:38;21.00;55.60
42885;DHT22;28534;48.100;11.584;2024-03-08T02:37:40;21.00;55.60
42885;DHT22;28534;48.100;11.584;2024-03-08T02:38:40;21.00;55.60
42885;DHT22;28534;48.100;11.584;2024-03-08T02:39:42;21.00;55.60
42885;DHT22;28534;48.100;11.584;2024-03-08T02:40:42;21.00;55.60
42885;DHT22;28534;48.100;11.584;2024-03-08T02:41:44;21.00;55.60
42885;DHT22;28534;48.100;11.584;2024-03-08T02:42:45;21.00;55.60
42885;DHT22;28534;48.100;11.584;2024-03-08T02:43:46;21.00;55.60
42885;DHT22;28534;48.100;11.584;2024-03-08T02:44:47;21.00;55.60
42885;DHT22;28534;48.100;11.584;2024-03-08T02:45:48;20.90;55.60
42885;DHT22;28534;48.100;11.584;2024-03-08T02:46:50;21.00;55.70
42885;DHT22;28534;48.100;11.584;2024-03-08T02:47:51;21.00;55.70
42885;DHT22;28534;48.100;11.584;2024-03-08T02:48:52;21.00;55.70
42885;DHT22;28534;48.100;11.584;2024-03-08T02:49:53;21.00;55.70
42885;DHT22;28534;48.100;11.584;2024-03-08T02:50:54;21.00;55.70
42885;DHT22;28534;48.100;11.584;2024-03-08T02:51:57;21.00;55.70
42885;DHT22;28534;48.100;11.584;2024-03-08T02:52:59;21.00;55.70
42885;DHT22;28534;48.100;11.584;2024-03-08T02:54:00;21.00;55.70
42885;DHT22;28534;48.100;11.584;2024-03-08T02:55:01;21.00;55.60
42885;DHT22;28534;48.100;11.584;2024-03-08T02:56:03;21.00;55.60
42885;DHT22;28534;48.100;11.584;2024-03-08T02:57:03;21.00;55.60
42885;DHT22;28534;48.100;11.584;2024-03-08T02:58:07;21.00;55.70
42885;DHT22;28534;48.100;11.584;2024-03-08T02:59:10;21.00;55.70
42885;DHT22;28534;48.100;11.584;2024-03-08T03:00:12;21.00;55.70
42885;DHT22;28534;48.100;11.584;2024-03-08T03:01:13;21.00;55.70
42885;DHT22;28534;48.100;11.584;2024-03-08T03:02:14;21.00;55.70
42885;DHT22;28534;48.100;11.584;2024-03-08T03:03:16;21.00;55.70
42885;DHT22;28534;48.100;11.584;2024-03-08T03:04:18;21.00;55.70
42885;DHT22;28534;48.100;11.584;2024-03-08T03:05:18;21.00;55.70
42885;DHT22;28534;48.100;11.584;2024-03-08T03:06:20;21.00;55.70
42885;DHT22;28534;48.100;11.584;2024-03-08T03:07:22;21.00;55.80
42885;DHT22;28534;48.100;11.584;2024-03-08T03:08:27;21.00;55.80
42885;DHT22;28534;48.100;11.584;2024-03-08T03:09:28;21.00;55.70
42885;DHT22;28534;48.100;11.584;2024-03-08T03:10:30;21.00;55.70
42885;DHT22;28534;48.100;11.584;2024-03-08T03:11:31;21.00;55.80
42885;DHT22;28534;48.100;11.584;2024-03-08T03:12:33;21.00;55.70
42885;DHT22;28534;48.100;11.584;2024-03-08T03:13:34;21.00;55.70
42885;DHT22;28534;48.100;11.584;2024-03-08T03:14:35;21.00;55.70
42885;DHT22;28534;48.100;11.584;2024-03-08T03:15:38;21.00;55.70
42885;DHT22;28534;48.100;11.584;2024-03-08T03:16:42;21.00;55.70
42885;DHT22;28534;48.100;11.584;2024-03-08T03:17:45;21.00;55.70
42885;DHT22;28534;48.100;11.584;2024-03-08T03:18:47;21.00;55.80
42885;DHT22;28534;48.100;11.584;2024-03-08T03:19:47;21.00;55.70
42885;DHT22;28534;48.100;11.584;2024-03-08T03:20:48;21.00;55.70
42885;DHT22;28534;48.100;11.584;2024-03-08T03:21:49;21.00;55.80
42885;DHT22;28534;48.100;11.584;2024-03-08T03:22:52;21.00;55.70
42885;DHT22;28534;48.100;11.584;2024-03-08T03:23:53;21.00;55.70
42885;DHT22;28534;48.100;11.584;2024-03-08T03:24:55;21.00;55.70
42885;DHT22;28534;48.100;11.584;2024-03-08T03:25:58;21.00;55.70
42885;DHT22;28534;48.100;11.584;2024-03-08T03:27:00;21.00;55.80
42885;DHT22;28534;48.100;11.584;2024-03-08T03:28:01;20.90;55.70
42885;DHT22;28534;48.100;11.584;2024-03-08T03:29:02;21.00;55.80
42885;DHT22;28534;48.100;11.584;2024-03-08T03:30:04;21.00;55.80
42885;DHT22;28534;48.100;11.584;2024-03-08T03:31:21;21.00;55.80
42885;DHT22;28534;48.100;11.584;2024-03-08T03:32:24;21.00;55.80
42885;DHT22;28534;48.100;11.584;2024-03-08T03:33:25;21.00;56.50
42885;DHT22;28534;48.100;11.584;2024-03-08T03:34:26;21.00;55.80
42885;DHT22;28534;48.100;11.584;2024-03-08T03:35:29;21.00;55.80
42885;DHT22;28534;48.100;11.584;2024-03-08T03:36:30;21.00;55.80
42885;DHT22;28534;48.100;11.584;2024-03-08T03:37:31;21.00;55.80
42885;DHT22;28534;48.100;11.584;2024-03-08T03:38:33;21.00;55.80
42885;DHT22;28534;48.100;11.584;2024-03-08T03:39:35;21.00;55.80
42885;DHT22;28534;48.100;11.584;2024-03-08T03:40:40;20.90;55.80
42885;DHT22;28534;48.100;11.584;2024-03-08T03:41:42;21.00;55.80
42885;DHT22;28534;48.100;11.584;2024-03-08T03:42:45;21.00;55.80
42885;DHT22;28534;48.100;11.584;2024-03-08T03:43:46;21.00;55.80
42885;DHT22;28534;48.100;11.584;2024-03-08T03:44:49;21.00;55.80
42885;DHT22;28534;48.100;11.584;2024-03-08T03:45:50;20.90;55.80
42885;DHT22;28534;48.100;11.584;2024-03-08T03:46:51;21.00;55.90
42885;DHT22;28534;48.100;11.584;2024-03-08T03:47:52;21.00;55.80
42885;DHT22;28534;48.100;11.584;2024-03-08T03:48:54;20.90;55.80
42885;DHT22;28534;48.100;11.584;2024-03-08T03:49:55;21.00;55.90
42885;DHT22;28534;48.100;11.584;2024-03-08T03:51:02;21.00;55.80
42885;DHT22;28534;48.100;11.584;2024-03-08T03:52:02;21.00;55.90
42885;DHT22;28534;48.100;11.584;2024-03-08T03:53:05;21.00;55.90
42885;DHT22;28534;48.100;11.584;2024-03-08T03:54:09;21.00;55.80
42885;DHT22;28534;48.100;11.584;2024-03-08T03:55:11;21.00;55.80
42885;DHT22;28534;48.100;11.584;2024-03-08T03:56:12;21.00;55.80
42885;DHT22;28534;48.100;11.584;2024-03-08T03:57:13;21.00;55.80
42885;DHT22;28534;48.100;11.584;2024-03-08T03:58:14;21.00;55.70
42885;DHT22;28534;48.100;11.584;2024-03-08T03:59:16;21.00;55.70
42885;DHT22;28534;48.100;11.584;2024-03-08T04:00:17;21.00;55.70
42885;DHT22;28534;48.100;11.584;2024-03-08T04:01:19;21.00;55.60
42885;DHT22;28534;48.100;11.584;2024-03-08T04:02:19;21.00;55.60
42885;DHT22;28534;48.100;11.584;2024-03-08T04:03:21;21.10;55.60
42885;DHT22;28534;48.100;11.584;2024-03-08T04:04:22;21.00;55.60
42885;DHT22;28534;48.100;11.584;2024-03-08T04:05:25;21.10;55.90
42885;DHT22;28534;48.100;11.584;2024-03-08T04:06:25;21.10;55.60
42885;DHT22;28534;48.100;11.584;2024-03-08T04:07:27;21.10;55.60
42885;DHT22;28534;48.100;11.584;2024-03-08T04:08:27;21.10;55.60
42885;DHT22;28534;48.100;11.584;2024-03-08T04:09:30;21.10;55.60
42885;DHT22;28534;48.100;11.584;2024-03-08T04:10:31;21.10;55.60
42885;DHT22;28534;48.100;11.584;2024-03-08T04:11:33;21.10;55.60
42885;DHT22;28534;48.100;11.584;2024-03-08T04:12:33;21.00;55.60
42885;DHT22;28534;48.100;11.584;2024-03-08T04:13:35;21.10;55.60
42885;DHT22;28534;48.100;11.584;2024-03-08T04:14:38;21.10;55.60
42885;DHT22;28534;48.100;11.584;2024-03-08T04:15:40;21.10;55.50
42885;DHT22;28534;48.100;11.584;2024-03-08T04:16:40;21.10;55.30
42885;DHT22;28534;48.100;11.584;2024-03-08T04:17:42;21.20;55.20
42885;DHT22;28534;48.100;11.584;2024-03-08T04:18:43;21.30;55.00
42885;DHT22;28534;48.100;11.584;2024-03-08T04:19:44;21.30;54.90
42885;DHT22;28534;48.100;11.584;2024-03-08T04:20:45;21.40;55.00
42885;DHT22;28534;48.100;11.584;2024-03-08T04:21:45;21.40;54.90
42885;DHT22;28534;48.100;11.584;2024-03-08T04:22:47;21.40;54.90
42885;DHT22;28534;48.100;11.584;2024-03-08T04:23:49;21.40;54.80
42885;DHT22;28534;48.100;11.584;2024-03-08T04:24:52;21.40;54.80
42885;DHT22;28534;48.100;11.584;2024-03-08T04:25:52;21.50;54.80
42885;DHT22;28534;48.100;11.584;2024-03-08T04:26:53;21.40;54.60
42885;DHT22;28534;48.100;11.584;2024-03-08T04:27:55;21.50;54.70
42885;DHT22;28534;48.100;11.584;2024-03-08T04:28:55;21.50;54.70
42885;DHT22;28534;48.100;11.584;2024-03-08T04:29:57;21.50;54.60
42885;DHT22;28534;48.100;11.584;2024-03-08T04:30:57;21.60;54.60
42885;DHT22;28534;48.100;11.584;2024-03-08T04:32:01;21.50;54.50
42885;DHT22;28534;48.100;11.584;2024-03-08T04:33:04;21.60;54.50
42885;DHT22;28534;48.100;11.584;2024-03-08T04:34:05;21.50;54.50
42885;DHT22;28534;48.100;11.584;2024-03-08T04:35:06;21.60;54.50
42885;DHT22;28534;48.100;11.584;2024-03-08T04:36:07;21.60;54.50
42885;DHT22;28534;48.100;11.584;2024-03-08T04:37:13;21.60;54.30
42885;DHT22;28534;48.100;11.584;2024-03-08T04:38:15;21.60;54.40
42885;DHT22;28534;48.100;11.584;2024-03-08T04:39:16;21.60;54.40
42885;DHT22;28534;48.100;11.584;2024-03-08T04:40:20;21.60;54.40
42885;DHT22;28534;48.100;11.584;2024-03-08T04:41:20;21.70;54.40
42885;DHT22;28534;48.100;11.584;2024-03-08T04:42:23;21.70;54.30
42885;DHT22;28534;48.100;11.584;2024-03-08T04:43:24;21.70;54.20
42885;DHT22;28534;48.100;11.584;2024-03-08T04:44:27;21.80;54.20
42885;DHT22;28534;48.100;11.584;2024-03-08T04:45:28;21.70;54.20
42885;DHT22;28534;48.100;11.584;2024-03-08T04:46:29;21.70;54.20
42885;DHT22;28534;48.100;11.584;2024-03-08T04:47:30;21.70;54.20
42885;DHT22;28534;48.100;11.584;2024-03-08T04:48:32;21.80;54.20
42885;DHT22;28534;48.100;11.584;2024-03-08T04:49:32;21.80;54.10
42885;DHT22;28534;48.100;11.584;2024-03-08T04:50:34;21.80;54.10
42885;DHT22;28534;48.100;11.584;2024-03-08T04:51:35;21.80;54.00
42885;DHT22;28534;48.100;11.584;2024-03-08T04:52:37;21.80;54.00
42885;DHT22;28534;48.100;11.584;2024-03-08T04:53:38;21.90;54.00
42885;DHT22;28534;48.100;11.584;2024-03-08T04:54:39;21.90;53.90
42885;DHT22;28534;48.100;11.584;2024-03-08T04:55:41;21.90;53.90
42885;DHT22;28534;48.100;11.584;2024-03-08T04:56:43;22.00;53.80
42885;DHT22;28534;48.100;11.584;2024-03-08T04:57:44;22.00;53.70
42885;DHT22;28534;48.100;11.584;2024-03-08T04:58:46;22.10;53.70
42885;DHT22;28534;48.100;11.584;2024-03-08T04:59:47;22.10;53.60
42885;DHT22;28534;48.100;11.584;2024-03-08T05:00:49;22.10;53.40
42885;DHT22;28534;48.100;11.584;2024-03-08T05:01:51;22.10;53.40
42885;DHT22;28534;48.100;11.584;2024-03-08T05:02:51;22.20;53.50
42885;DHT22;28534;48.100;11.584;2024-03-08T05:03:53;22.20;53.40
42885;DHT22;28534;48.100;11.584;2024-03-08T05:04:55;22.20;53.40
42885;DHT22;28534;48.100;11.584;2024-03-08T05:05:57;22.20;53.40
42885;DHT22;28534;48.100;11.584;2024-03-08T05:06:57;22.20;53.40
42885;DHT22;28534;48.100;11.584;2024-03-08T05:08:01;22.20;53.50
42885;DHT22;28534;48.100;11.584;2024-03-08T05:09:02;22.20;53.40
42885;DHT22;28534;48.100;11.584;2024-03-08T05:10:13;22.20;53.40
42885;DHT22;28534;48.100;11.584;2024-03-08T05:11:19;22.30;53.40
42885;DHT22;28534;48.100;11.584;2024-03-08T05:12:20;22.30;53.40
42885;DHT22;28534;48.100;11.584;2024-03-08T05:13:22;22.30;53.40
42885;DHT22;28534;48.100;11.584;2024-03-08T05:14:24;22.40;53.30
42885;DHT22;28534;48.100;11.584;2024-03-08T05:15:25;22.40;53.30
42885;DHT22;28534;48.100;11.584;2024-03-08T05:16:26;22.40;53.30
42885;DHT22;28534;48.100;11.584;2024-03-08T05:17:27;22.40;53.20
42885;DHT22;28534;48.100;11.584;2024-03-08T05:18:28;22.40;53.30
42885;DHT22;28534;48.100;11.584;2024-03-08T05:19:32;22.50;53.30
42885;DHT22;28534;48.100;11.584;2024-03-08T05:20:32;22.50;53.20
42885;DHT22;28534;48.100;11.584;2024-03-08T05:21:35;22.50;53.20
42885;DHT22;28534;48.100;11.584;2024-03-08T05:22:36;22.50;53.20
42885;DHT22;28534;48.100;11.584;2024-03-08T05:23:37;22.50;53.20
42885;DHT22;28534;48.100;11.584;2024-03-08T05:24:39;22.60;53.20
42885;DHT22;28534;48.100;11.584;2024-03-08T05:25:40;22.60;53.10
42885;DHT22;28534;48.100;11.584;2024-03-08T05:26:43;22.60;53.00
42885;DHT22;28534;48.100;11.584;2024-03-08T05:27:43;22.70;52.90
42885;DHT22;28534;48.100;11.584;2024-03-08T05:28:45;22.80;52.90
42885;DHT22;28534;48.100;11.584;2024-03-08T05:29:45;22.80;52.90
42885;DHT22;28534;48.100;11.584;2024-03-08T05:30:46;22.70;52.90
42885;DHT22;28534;48.100;11.584;2024-03-08T05:31:48;22.70;52.90
42885;DHT22;28534;48.100;11.584;2024-03-08T05:32:49;22.70;52.90
42885;DHT22;28534;48.100;11.584;2024-03-08T05:33:51;22.70;53.00
42885;DHT22;28534;48.100;11.584;2024-03-08T05:34:51;22.70;53.00
42885;DHT22;28534;48.100;11.584;2024-03-08T05:35:52;22.70;52.90
42885;DHT22;28534;48.100;11.584;2024-03-08T05:36:54;22.70;53.00
42885;DHT22;28534;48.100;11.584;2024-03-08T05:37:55;22.70;53.00
42885;DHT22;28534;48.100;11.584;2024-03-08T05:38:56;22.70;53.00
42885;DHT22;28534;48.100;11.584;2024-03-08T05:39:57;22.70;53.00
42885;DHT22;28534;48.100;11.584;2024-03-08T05:40:58;22.70;52.90
42885;DHT22;28534;48.100;11.584;2024-03-08T05:42:00;22.70;53.00
42885;DHT22;28534;48.100;11.584;2024-03-08T05:43:02;22.80;53.00
42885;DHT22;28534;48.100;11.584;2024-03-08T05:44:02;22.70;53.00
42885;DHT22;28534;48.100;11.584;2024-03-08T05:45:04;22.70;53.20
42885;DHT22;28534;48.100;11.584;2024-03-08T05:46:06;22.70;53.20
42885;DHT22;28534;48.100;11.584;2024-03-08T05:47:08;22.70;53.30
42885;DHT22;28534;48.100;11.584;2024-03-08T05:48:08;22.70;53.10
42885;DHT22;28534;48.100;11.584;2024-03-08T05:49:10;22.80;53.10
42885;DHT22;28534;48.100;11.584;2024-03-08T05:50:12;22.80;53.20
42885;DHT22;28534;48.100;11.584;2024-03-08T05:51:15;22.70;53.20
42885;DHT22;28534;48.100;11.584;2024-03-08T05:52:16;22.70;53.30
42885;DHT22;28534;48.100;11.584;2024-03-08T05:53:17;22.80;53.30
42885;DHT22;28534;48.100;11.584;2024-03-08T05:54:18;22.70;53.30
42885;DHT22;28534;48.100;11.584;2024-03-08T05:55:22;22.80;53.40
42885;DHT22;28534;48.100;11.584;2024-03-08T05:56:24;22.70;53.40
42885;DHT22;28534;48.100;11.584;2024-03-08T05:57:27;22.80;53.60
42885;DHT22;28534;48.100;11.584;2024-03-08T05:58:28;22.80;53.60
42885;DHT22;28534;48.100;11.584;2024-03-08T05:59:31;22.70;53.60
42885;DHT22;28534;48.100;11.584;2024-03-08T06:00:32;22.70;53.80
42885;DHT22;28534;48.100;11.584;2024-03-08T06:01:32;22.70;53.90
42885;DHT22;28534;48.100;11.584;2024-03-08T06:02:36;22.70;53.90
42885;DHT22;28534;48.100;11.584;2024-03-08T06:03:41;22.70;54.10
42885;DHT22;28534;48.100;11.584;2024-03-08T06:04:45;22.70;54.10
42885;DHT22;28534;48.100;11.584;2024-03-08T06:05:47;22.70;54.00
42885;DHT22;28534;48.100;11.584;2024-03-08T06:06:49;22.70;54.10
42885;DHT22;28534;48.100;11.584;2024-03-08T06:07:52;22.80;54.20
42885;DHT22;28534;48.100;11.584;2024-03-08T06:08:54;22.80;54.00
42885;DHT22;28534;48.100;11.584;2024-03-08T06:09:56;22.80;54.10
42885;DHT22;28534;48.100;11.584;2024-03-08T06:10:58;22.80;54.10
42885;DHT22;28534;48.100;11.584;2024-03-08T06:11:59;22.80;54.20
42885;DHT22;28534;48.100;11.584;2024-03-08T06:13:03;22.80;54.20
42885;DHT22;28534;48.100;11.584;2024-03-08T06:14:04;22.80;54.10
42885;DHT22;28534;48.100;11.584;2024-03-08T06:15:06;22.90;54.20
42885;DHT22;28534;48.100;11.584;2024-03-08T06:16:07;22.90;54.20
42885;DHT22;28534;48.100;11.584;2024-03-08T06:17:08;22.90;54.20
42885;DHT22;28534;48.100;11.584;2024-03-08T06:18:09;22.90;53.70
42885;DHT22;28534;48.100;11.584;2024-03-08T06:19:12;22.90;53.50
42885;DHT22;28534;48.100;11.584;2024-03-08T06:20:12;22.90;52.90
42885;DHT22;28534;48.100;11.584;2024-03-08T06:21:14;22.90;53.00
42885;DHT22;28534;48.100;11.584;2024-03-08T06:22:16;22.90;53.00
42885;DHT22;28534;48.100;11.584;2024-03-08T06:23:18;22.90;53.00